createdAt,value
2023-05-21T00:01:39.563Z,99.90
2023-05-21T00:04:42.783Z,99.90
2023-05-21T00:07:47.298Z,99.90
2023-05-21T00:10:51.845Z,99.90
2023-05-21T00:13:55.036Z,99.90
2023-05-21T00:16:59.311Z,99.90
2023-05-21T00:20:04.765Z,99.90
2023-05-21T00:23:07.922Z,99.90
2023-05-21T00:26:12.541Z,99.90
2023-05-21T00:29:15.768Z,99.90
2023-05-21T00:32:18.981Z,99.90
2023-05-21T00:35:22.150Z,99.90
2023-05-21T00:38:27.936Z,99.90
2023-05-21T00:41:32.489Z,99.90
2023-05-21T00:44:35.672Z,99.90
2023-05-21T00:47:39.299Z,99.90
2023-05-21T00:50:43.107Z,99.90
2023-05-21T00:53:46.837Z,99.90
2023-05-21T00:56:52.513Z,99.90
2023-05-21T00:59:55.731Z,99.90
2023-05-21T01:02:58.996Z,99.90
2023-05-21T01:06:02.132Z,99.90
2023-05-21T01:09:06.957Z,99.90
2023-05-21T01:12:12.235Z,99.90
2023-05-21T01:15:15.711Z,99.90
2023-05-21T01:18:20.228Z,99.90
2023-05-21T01:21:28.507Z,99.90
2023-05-21T01:24:33.114Z,99.90
2023-05-21T01:27:36.360Z,99.90
2023-05-21T01:30:40.799Z,99.90
2023-05-21T01:33:51.062Z,99.90
2023-05-21T01:37:02.772Z,99.90
2023-05-21T01:40:13.057Z,99.90
2023-05-21T01:43:17.194Z,99.90
2023-05-21T01:46:24.642Z,99.90
2023-05-21T01:49:28.188Z,99.90
2023-05-21T01:52:31.337Z,99.90
2023-05-21T01:55:39.644Z,99.90
2023-05-21T01:58:44.055Z,99.90
2023-05-21T02:01:47.415Z,99.90
2023-05-21T02:04:50.515Z,99.90
2023-05-21T02:07:53.856Z,99.90
2023-05-21T02:10:58.365Z,99.90
2023-05-21T02:14:01.509Z,99.90
2023-05-21T02:17:04.871Z,99.90
2023-05-21T02:20:11.585Z,99.90
2023-05-21T02:23:14.918Z,99.90
2023-05-21T02:26:19.480Z,99.90
2023-05-21T02:29:22.601Z,99.90
2023-05-21T02:32:25.788Z,99.90
2023-05-21T02:35:29.061Z,99.90
2023-05-21T02:38:32.703Z,99.90
2023-05-21T02:41:38.204Z,99.90
2023-05-21T02:44:41.295Z,99.90
2023-05-21T02:47:44.455Z,99.90
2023-05-21T02:50:47.840Z,99.90
2023-05-21T02:53:50.957Z,99.90
2023-05-21T02:56:55.749Z,99.90
2023-05-21T02:59:58.887Z,99.90
2023-05-21T03:03:02.157Z,99.90
2023-05-21T03:06:05.486Z,99.90
2023-05-21T03:09:08.626Z,99.90
2023-05-21T03:12:13.191Z,99.90
2023-05-21T03:15:16.388Z,99.90
2023-05-21T03:18:19.606Z,99.90
2023-05-21T03:21:23.219Z,99.90
2023-05-21T03:24:26.395Z,99.90
2023-05-21T03:27:30.882Z,99.90
2023-05-21T03:30:34.124Z,99.90
2023-05-21T03:33:37.329Z,99.90
2023-05-21T03:36:40.867Z,99.90
2023-05-21T03:39:43.975Z,99.90
2023-05-21T03:42:48.440Z,99.90
2023-05-21T03:45:51.913Z,99.90
2023-05-21T03:48:55.254Z,99.90
2023-05-21T03:51:58.351Z,99.90
2023-05-21T03:55:01.516Z,99.90
2023-05-21T03:58:06.130Z,99.90
2023-05-21T04:01:10.791Z,99.90
2023-05-21T04:04:14.047Z,99.90
2023-05-21T04:07:19.209Z,99.90
2023-05-21T04:10:23.147Z,99.90
2023-05-21T04:13:28.339Z,99.90
2023-05-21T04:16:34.732Z,99.90
2023-05-21T04:19:38.150Z,99.90
2023-05-21T04:22:41.834Z,99.90
2023-05-21T04:25:45.003Z,99.90
2023-05-21T04:28:49.554Z,99.90
2023-05-21T04:31:52.679Z,99.90
2023-05-21T04:34:55.808Z,99.90
2023-05-21T04:37:59.009Z,99.90
2023-05-21T04:41:03.875Z,99.90
2023-05-21T04:44:09.507Z,99.90
2023-05-21T04:47:14.963Z,99.90
2023-05-21T04:50:18.796Z,99.90
2023-05-21T04:53:21.987Z,99.90
2023-05-21T04:56:26.867Z,99.90
2023-05-21T04:59:31.958Z,99.90
2023-05-21T05:02:35.110Z,99.90
2023-05-21T05:05:38.554Z,99.90
2023-05-21T05:08:42.156Z,99.90
2023-05-21T05:11:45.310Z,99.90
2023-05-21T05:14:49.836Z,99.90
2023-05-21T05:17:53.012Z,99.90
2023-05-21T05:20:56.119Z,99.90
2023-05-21T05:23:59.186Z,99.90
2023-05-21T05:27:02.334Z,99.90
2023-05-21T05:30:08.513Z,99.90
2023-05-21T05:33:11.960Z,99.90
2023-05-21T05:36:15.098Z,99.90
2023-05-21T05:39:18.234Z,99.90
2023-05-21T05:42:21.400Z,99.90
2023-05-21T05:45:26.828Z,99.90
2023-05-21T05:48:29.987Z,99.90
2023-05-21T05:51:33.130Z,99.90
2023-05-21T05:54:36.324Z,99.90
2023-05-21T05:57:39.582Z,99.90
2023-05-21T06:00:44.085Z,99.90
2023-05-21T06:03:47.550Z,99.90
2023-05-21T06:06:51.003Z,99.30
2023-05-21T06:09:54.165Z,98.00
2023-05-21T06:12:57.242Z,97.40
2023-05-21T06:16:01.867Z,95.70
2023-05-21T06:19:05.068Z,94.90
2023-05-21T06:22:08.390Z,94.10
2023-05-21T06:25:11.720Z,92.90
2023-05-21T06:28:14.840Z,90.50
2023-05-21T06:31:22.444Z,89.10
2023-05-21T06:34:25.689Z,87.90
2023-05-21T06:37:28.889Z,85.80
2023-05-21T06:40:32.083Z,82.10
2023-05-21T06:43:36.419Z,80.40
2023-05-21T06:46:41.008Z,81.60
2023-05-21T06:49:44.138Z,83.20
2023-05-21T06:52:47.265Z,84.10
2023-05-21T06:55:53.831Z,85.80
2023-05-21T06:58:57.213Z,87.70
2023-05-21T07:02:04.358Z,89.70
2023-05-21T07:05:08.219Z,90.10
2023-05-21T07:08:12.156Z,90.30
2023-05-21T07:11:15.580Z,90.30
2023-05-21T07:14:18.771Z,90.40
2023-05-21T07:17:23.348Z,90.00
2023-05-21T07:20:26.729Z,87.90
2023-05-21T07:23:29.826Z,87.10
2023-05-21T07:26:33.069Z,86.40
2023-05-21T07:29:36.223Z,88.00
2023-05-21T07:32:40.829Z,84.90
2023-05-21T07:35:44.029Z,82.60
2023-05-21T07:38:47.184Z,81.70
2023-05-21T07:41:50.332Z,76.30
2023-05-21T07:44:53.517Z,70.80
2023-05-21T07:47:58.090Z,68.20
2023-05-21T07:51:02.150Z,62.90
2023-05-21T07:54:05.379Z,60.00
2023-05-21T07:57:08.585Z,57.30
2023-05-21T08:00:14.479Z,56.70
2023-05-21T08:03:20.033Z,55.80
2023-05-21T08:06:24.431Z,54.60
2023-05-21T08:09:27.619Z,54.90
2023-05-21T08:12:30.768Z,53.40
2023-05-21T08:15:33.950Z,51.50
2023-05-21T08:18:38.491Z,50.60
2023-05-21T08:21:41.776Z,51.00
2023-05-21T08:24:44.948Z,53.00
2023-05-21T08:27:48.706Z,53.40
2023-05-21T08:30:53.129Z,51.20
2023-05-21T08:33:57.676Z,52.40
2023-05-21T08:37:00.850Z,52.20
2023-05-21T08:40:05.742Z,52.90
2023-05-21T08:43:13.778Z,52.30
2023-05-21T08:46:20.163Z,53.20
2023-05-21T08:49:28.359Z,55.00
2023-05-21T08:52:32.389Z,54.50
2023-05-21T08:55:36.303Z,55.00
2023-05-21T08:58:42.807Z,56.00
2023-05-21T09:01:47.229Z,56.10
2023-05-21T09:04:57.550Z,55.70
2023-05-21T09:08:06.703Z,56.70
2023-05-21T09:11:09.825Z,56.70
2023-05-21T09:14:13.770Z,56.00
2023-05-21T09:17:17.521Z,55.80
2023-05-21T09:20:26.637Z,56.90
2023-05-21T09:23:30.208Z,59.30
2023-05-21T09:26:34.207Z,57.00
2023-05-21T09:29:37.352Z,57.40
2023-05-21T09:32:41.519Z,58.50
2023-05-21T09:35:49.117Z,53.80
2023-05-21T09:38:53.060Z,54.80
2023-05-21T09:41:58.229Z,53.40
2023-05-21T09:45:02.451Z,54.90
2023-05-21T09:48:05.999Z,52.50
2023-05-21T09:51:15.079Z,51.00
2023-05-21T09:54:18.240Z,52.80
2023-05-21T09:57:25.975Z,54.00
2023-05-21T10:00:29.766Z,53.70
2023-05-21T10:03:34.782Z,54.30
2023-05-21T10:06:43.434Z,52.80
2023-05-21T10:09:49.165Z,54.50
2023-05-21T10:12:56.404Z,53.80
2023-05-21T10:16:03.592Z,52.00
2023-05-21T10:19:10.899Z,52.30
2023-05-21T10:22:16.908Z,51.60
2023-05-21T10:25:21.413Z,51.90
2023-05-21T10:28:25.832Z,52.50
2023-05-21T10:31:28.976Z,52.30
2023-05-21T10:34:33.310Z,51.80
2023-05-21T10:37:38.690Z,52.40
2023-05-21T10:40:41.935Z,53.00
2023-05-21T10:43:58.570Z,53.30
2023-05-21T10:47:29.177Z,54.10
2023-05-21T10:51:10.516Z,55.20
2023-05-21T10:54:37.406Z,55.20
2023-05-21T10:58:11.646Z,54.70
2023-05-21T11:01:16.436Z,54.80
2023-05-21T11:04:23.686Z,54.40
2023-05-21T11:07:57.806Z,54.00
2023-05-21T11:11:01.217Z,55.30
2023-05-21T11:14:28.235Z,54.60
2023-05-21T11:17:42.138Z,54.10
2023-05-21T11:20:52.246Z,53.80
2023-05-21T11:23:57.924Z,53.60
2023-05-21T11:27:08.794Z,53.10
2023-05-21T11:30:16.954Z,52.80
2023-05-21T11:33:20.413Z,52.30
2023-05-21T11:36:23.701Z,52.10
2023-05-21T11:39:28.725Z,51.90
2023-05-21T11:42:33.927Z,51.80
2023-05-21T11:45:37.597Z,52.70
2023-05-21T11:48:41.838Z,52.50
2023-05-21T11:51:45.394Z,51.50
2023-05-21T11:54:54.183Z,51.80
2023-05-21T11:57:57.762Z,51.10
2023-05-21T12:01:01.144Z,50.70
2023-05-21T12:04:05.754Z,50.40
2023-05-21T12:07:09.771Z,49.90
2023-05-21T12:10:14.969Z,49.20
2023-05-21T12:13:18.308Z,49.30
2023-05-21T12:16:22.851Z,49.20
2023-05-21T12:19:26.473Z,49.00
2023-05-21T12:22:29.938Z,49.80
2023-05-21T12:25:34.777Z,50.50
2023-05-21T12:28:38.433Z,50.60
2023-05-21T12:31:49.648Z,50.80
2023-05-21T12:34:54.775Z,51.50
2023-05-21T12:37:58.030Z,51.30
2023-05-21T12:41:06.858Z,50.50
2023-05-21T12:44:10.122Z,50.80
2023-05-21T12:47:13.769Z,49.90
2023-05-21T12:50:21.467Z,49.70
2023-05-21T12:53:24.635Z,49.20
2023-05-21T12:56:29.190Z,49.40
2023-05-21T12:59:45.379Z,49.30
2023-05-21T13:02:48.646Z,48.90
2023-05-21T13:05:59.757Z,48.80
2023-05-21T13:09:03.171Z,49.60
2023-05-21T13:12:08.262Z,49.60
2023-05-21T13:15:12.309Z,49.70
2023-05-21T13:18:16.335Z,49.40
2023-05-21T13:21:19.560Z,49.20
2023-05-21T13:24:22.789Z,48.10
2023-05-21T13:27:27.324Z,48.40
2023-05-21T13:30:30.673Z,48.00
2023-05-21T13:33:33.946Z,48.20
2023-05-21T13:36:37.326Z,47.60
2023-05-21T13:39:40.603Z,47.50
2023-05-21T13:42:46.187Z,47.90
2023-05-21T13:45:49.978Z,47.90
2023-05-21T13:48:53.219Z,47.50
2023-05-21T13:51:59.547Z,47.80
2023-05-21T13:55:02.855Z,47.60
2023-05-21T13:58:07.498Z,48.10
2023-05-21T14:01:10.762Z,48.40
2023-05-21T14:04:14.137Z,48.50
2023-05-21T14:07:17.339Z,48.90
2023-05-21T14:10:20.736Z,48.70
2023-05-21T14:13:25.344Z,48.40
2023-05-21T14:16:28.615Z,48.10
2023-05-21T14:19:31.825Z,47.90
2023-05-21T14:22:35.120Z,48.70
2023-05-21T14:25:38.623Z,48.40
2023-05-21T14:28:43.756Z,48.40
2023-05-21T14:31:47.363Z,49.10
2023-05-21T14:34:50.548Z,49.40
2023-05-21T14:37:54.295Z,48.80
2023-05-21T14:40:57.477Z,47.70
2023-05-21T14:44:02.019Z,48.30
2023-05-21T14:47:05.565Z,49.30
2023-05-21T14:50:09.609Z,50.40
2023-05-21T14:53:13.507Z,48.30
2023-05-21T14:56:16.649Z,46.00
2023-05-21T14:59:21.178Z,45.20
2023-05-21T15:02:24.557Z,45.40
2023-05-21T15:05:29.362Z,44.60
2023-05-21T15:08:32.616Z,45.60
2023-05-21T15:11:36.085Z,46.50
2023-05-21T15:14:40.983Z,47.20
2023-05-21T15:17:44.828Z,46.80
2023-05-21T15:20:48.298Z,47.50
2023-05-21T15:23:51.654Z,46.80
2023-05-21T15:26:54.774Z,46.50
2023-05-21T15:29:59.472Z,47.10
2023-05-21T15:33:02.673Z,45.60
2023-05-21T15:36:06.194Z,46.50
2023-05-21T15:39:09.427Z,46.70
2023-05-21T15:42:13.170Z,47.50
2023-05-21T15:45:17.717Z,48.80
2023-05-21T15:48:22.812Z,49.90
2023-05-21T15:51:25.948Z,50.60
2023-05-21T15:54:29.317Z,53.40
2023-05-21T15:57:32.522Z,55.00
2023-05-21T16:00:37.142Z,56.20
2023-05-21T16:03:40.334Z,57.20
2023-05-21T16:06:43.532Z,57.70
2023-05-21T16:09:46.735Z,58.60
2023-05-21T16:12:49.935Z,59.40
2023-05-21T16:15:54.453Z,60.20
2023-05-21T16:18:57.651Z,61.50
2023-05-21T16:22:01.995Z,62.10
2023-05-21T16:25:05.740Z,62.20
2023-05-21T16:28:08.960Z,61.00
2023-05-21T16:31:13.995Z,61.40
2023-05-21T16:34:17.153Z,61.90
2023-05-21T16:37:20.393Z,62.90
2023-05-21T16:40:23.617Z,63.50
2023-05-21T16:43:26.777Z,62.80
2023-05-21T16:46:31.421Z,63.40
2023-05-21T16:49:34.750Z,63.60
2023-05-21T16:52:37.933Z,63.60
2023-05-21T16:55:42.700Z,64.40
2023-05-21T16:58:45.899Z,65.00
2023-05-21T17:01:50.730Z,65.70
2023-05-21T17:04:54.018Z,66.30
2023-05-21T17:07:57.226Z,66.80
2023-05-21T17:11:00.504Z,67.40
2023-05-21T17:14:03.683Z,67.40
2023-05-21T17:17:08.536Z,67.30
2023-05-21T17:20:12.990Z,67.60
2023-05-21T17:23:16.469Z,68.20
2023-05-21T17:26:19.796Z,68.50
2023-05-21T17:29:23.004Z,70.10
2023-05-21T17:32:27.583Z,71.40
2023-05-21T17:35:30.797Z,72.10
2023-05-21T17:38:33.903Z,72.50
2023-05-21T17:41:37.495Z,72.60
2023-05-21T17:44:40.738Z,73.00
2023-05-21T17:47:45.403Z,73.10
2023-05-21T17:50:48.638Z,73.40
2023-05-21T17:53:51.773Z,73.30
2023-05-21T17:56:54.908Z,73.20
2023-05-21T17:59:58.190Z,73.40
2023-05-21T18:03:02.959Z,73.50
2023-05-21T18:06:09.270Z,73.80
2023-05-21T18:09:14.390Z,74.00
2023-05-21T18:12:17.725Z,74.30
2023-05-21T18:15:20.989Z,74.80
2023-05-21T18:18:25.961Z,75.30
2023-05-21T18:21:29.228Z,75.60
2023-05-21T18:24:32.472Z,76.10
2023-05-21T18:27:35.685Z,77.10
2023-05-21T18:30:39.094Z,77.30
2023-05-21T18:33:43.937Z,77.80
2023-05-21T18:36:48.308Z,77.90
2023-05-21T18:39:51.849Z,78.20
2023-05-21T18:42:55.032Z,78.60
2023-05-21T18:45:58.389Z,79.10
2023-05-21T18:49:03.030Z,79.50
2023-05-21T18:52:07.200Z,79.90
2023-05-21T18:55:11.279Z,80.70
2023-05-21T18:58:14.459Z,81.60
2023-05-21T19:01:18.490Z,82.20
2023-05-21T19:04:23.361Z,83.40
2023-05-21T19:07:26.708Z,84.20
2023-05-21T19:10:30.780Z,84.80
2023-05-21T19:13:34.694Z,85.80
2023-05-21T19:16:37.931Z,86.50
2023-05-21T19:19:42.872Z,86.80
2023-05-21T19:22:46.253Z,87.80
2023-05-21T19:25:49.535Z,88.90
2023-05-21T19:28:54.609Z,89.60
2023-05-21T19:31:59.258Z,90.20
2023-05-21T19:35:04.706Z,90.70
2023-05-21T19:38:08.501Z,91.00
2023-05-21T19:41:11.797Z,91.30
2023-05-21T19:44:15.114Z,91.70
2023-05-21T19:47:18.483Z,92.00
2023-05-21T19:50:23.160Z,92.40
2023-05-21T19:53:26.292Z,92.80
2023-05-21T19:56:29.546Z,93.00
2023-05-21T19:59:32.946Z,93.30
2023-05-21T20:02:36.182Z,93.40
2023-05-21T20:05:40.754Z,93.60
2023-05-21T20:08:43.888Z,93.90
2023-05-21T20:11:48.223Z,94.20
2023-05-21T20:14:51.813Z,94.50
2023-05-21T20:17:55.853Z,94.90
2023-05-21T20:21:00.656Z,95.10
2023-05-21T20:24:04.514Z,95.40
2023-05-21T20:27:07.700Z,95.60
2023-05-21T20:30:11.490Z,96.60
2023-05-21T20:33:15.381Z,97.00
2023-05-21T20:36:21.353Z,98.00
2023-05-21T20:39:24.623Z,98.50
2023-05-21T20:42:35.028Z,98.10
2023-05-21T20:45:39.372Z,97.10
2023-05-21T20:48:43.625Z,97.00
2023-05-21T20:51:48.293Z,96.90
2023-05-21T20:54:51.833Z,96.10
2023-05-21T20:57:54.994Z,96.00
2023-05-21T21:00:58.128Z,96.00
2023-05-21T21:04:01.615Z,95.80
2023-05-21T21:07:08.029Z,95.60
2023-05-21T21:10:11.554Z,95.80
2023-05-21T21:13:15.173Z,95.60
2023-05-21T21:16:18.467Z,95.20
2023-05-21T21:19:21.730Z,95.30
2023-05-21T21:22:26.479Z,95.70
2023-05-21T21:25:29.592Z,96.60
2023-05-21T21:28:32.744Z,96.60
2023-05-21T21:31:36.057Z,96.50
2023-05-21T21:34:39.287Z,96.50
2023-05-21T21:37:43.996Z,95.80
2023-05-21T21:40:47.174Z,96.10
2023-05-21T21:43:51.728Z,96.40
2023-05-21T21:46:54.921Z,96.90
2023-05-21T21:49:58.112Z,97.80
2023-05-21T21:53:03.685Z,98.00
2023-05-21T21:56:07.163Z,98.40
2023-05-21T21:59:10.465Z,98.80
2023-05-21T22:02:13.691Z,99.10
2023-05-21T22:05:16.969Z,99.30
2023-05-21T22:08:21.527Z,99.50
2023-05-21T22:11:24.699Z,99.70
2023-05-21T22:14:27.830Z,99.90
2023-05-21T22:17:31.230Z,99.90
2023-05-21T22:20:35.189Z,99.90
2023-05-21T22:23:39.897Z,99.90
2023-05-21T22:26:43.083Z,99.90
2023-05-21T22:29:46.201Z,99.90
2023-05-21T22:32:49.607Z,99.90
2023-05-21T22:35:52.813Z,99.90
2023-05-21T22:38:57.320Z,99.90
2023-05-21T22:42:00.786Z,99.90
2023-05-21T22:45:04.271Z,99.90
2023-05-21T22:48:08.288Z,99.90
2023-05-21T22:51:11.715Z,99.90
2023-05-21T22:54:16.242Z,99.90
2023-05-21T22:57:19.658Z,99.90
2023-05-21T23:00:23.345Z,99.90
2023-05-21T23:03:26.842Z,99.90
2023-05-21T23:06:29.979Z,99.90
2023-05-21T23:09:34.485Z,99.90
2023-05-21T23:12:38.735Z,99.90
2023-05-21T23:15:44.028Z,99.90
2023-05-21T23:18:48.683Z,99.90
2023-05-21T23:21:52.839Z,99.90
2023-05-21T23:24:57.312Z,99.90
2023-05-21T23:28:00.443Z,99.90
2023-05-21T23:31:03.725Z,99.90
2023-05-21T23:34:07.158Z,99.90
2023-05-21T23:37:10.874Z,99.90
2023-05-21T23:40:15.956Z,99.90
2023-05-21T23:43:19.112Z,99.90
2023-05-21T23:46:22.311Z,99.90
2023-05-21T23:49:25.487Z,99.90
2023-05-21T23:52:28.637Z,99.90
2023-05-21T23:55:33.141Z,99.90
2023-05-21T23:58:36.350Z,99.90
